sensor_id;sensor_type;location;lat;lon;timestamp;P1;durP1;ratioP1;P2;durP2;ratioP2
18610;SDS011;9435;52.122;5.502;2023-05-10T00:02:15;34.47;;;17.58;;
18610;SDS011;9435;52.122;5.502;2023-05-10T00:04:42;33.67;;;17.58;;
18610;SDS011;9435;52.122;5.502;2023-05-10T00:07:10;35.13;;;17.00;;
18610;SDS011;9435;52.122;5.502;2023-05-10T00:09:37;31.13;;;16.45;;
18610;SDS011;9435;52.122;5.502;2023-05-10T00:12:04;37.13;;;16.80;;
18610;SDS011;9435;52.122;5.502;2023-05-10T00:14:33;36.53;;;18.27;;
18610;SDS011;9435;52.122;5.502;2023-05-10T00:17:00;34.00;;;16.75;;
18610;SDS011;9435;52.122;5.502;2023-05-10T00:19:27;24.02;;;13.50;;
18610;SDS011;9435;52.122;5.502;2023-05-10T00:21:54;21.48;;;12.13;;
18610;SDS011;9435;52.122;5.502;2023-05-10T00:24:21;26.40;;;13.38;;
18610;SDS011;9435;52.122;5.502;2023-05-10T00:26:48;28.45;;;15.48;;
18610;SDS011;9435;52.122;5.502;2023-05-10T00:29:15;32.60;;;17.10;;
18610;SDS011;9435;52.122;5.502;2023-05-10T00:31:43;39.60;;;18.60;;
18610;SDS011;9435;52.122;5.502;2023-05-10T00:34:10;48.75;;;22.65;;
18610;SDS011;9435;52.122;5.502;2023-05-10T00:36:37;57.53;;;25.33;;
18610;SDS011;9435;52.122;5.502;2023-05-10T00:39:05;54.33;;;23.73;;
18610;SDS011;9435;52.122;5.502;2023-05-10T00:41:32;58.63;;;25.15;;
18610;SDS011;9435;52.122;5.502;2023-05-10T00:43:59;70.15;;;30.40;;
18610;SDS011;9435;52.122;5.502;2023-05-10T00:46:27;67.75;;;29.10;;
18610;SDS011;9435;52.122;5.502;2023-05-10T00:48:56;77.93;;;30.25;;
18610;SDS011;9435;52.122;5.502;2023-05-10T00:51:23;79.78;;;31.38;;
18610;SDS011;9435;52.122;5.502;2023-05-10T00:53:51;86.13;;;32.17;;
18610;SDS011;9435;52.122;5.502;2023-05-10T00:56:18;92.95;;;34.08;;
18610;SDS011;9435;52.122;5.502;2023-05-10T00:58:47;98.07;;;33.80;;
18610;SDS011;9435;52.122;5.502;2023-05-10T01:01:15;105.30;;;36.45;;
18610;SDS011;9435;52.122;5.502;2023-05-10T01:03:42;101.72;;;34.53;;
18610;SDS011;9435;52.122;5.502;2023-05-10T01:06:11;110.72;;;37.13;;
18610;SDS011;9435;52.122;5.502;2023-05-10T01:08:38;115.22;;;36.97;;
18610;SDS011;9435;52.122;5.502;2023-05-10T01:11:06;119.57;;;38.20;;
18610;SDS011;9435;52.122;5.502;2023-05-10T01:13:33;122.82;;;38.88;;
18610;SDS011;9435;52.122;5.502;2023-05-10T01:16:04;118.38;;;39.13;;
18610;SDS011;9435;52.122;5.502;2023-05-10T01:18:33;127.60;;;39.80;;
18610;SDS011;9435;52.122;5.502;2023-05-10T01:21:12;128.18;;;39.60;;
18610;SDS011;9435;52.122;5.502;2023-05-10T01:23:51;129.05;;;39.65;;
18610;SDS011;9435;52.122;5.502;2023-05-10T01:27:06;129.55;;;39.85;;
18610;SDS011;9435;52.122;5.502;2023-05-10T01:29:55;132.35;;;39.35;;
18610;SDS011;9435;52.122;5.502;2023-05-10T01:32:58;132.77;;;40.05;;
18610;SDS011;9435;52.122;5.502;2023-05-10T01:35:31;131.18;;;39.47;;
18610;SDS011;9435;52.122;5.502;2023-05-10T01:38:04;133.32;;;39.15;;
18610;SDS011;9435;52.122;5.502;2023-05-10T01:40:39;143.30;;;40.20;;
18610;SDS011;9435;52.122;5.502;2023-05-10T01:43:19;143.30;;;41.20;;
18610;SDS011;9435;52.122;5.502;2023-05-10T01:45:50;141.23;;;40.00;;
18610;SDS011;9435;52.122;5.502;2023-05-10T01:48:27;145.05;;;40.50;;
18610;SDS011;9435;52.122;5.502;2023-05-10T01:50:55;142.90;;;41.58;;
18610;SDS011;9435;52.122;5.502;2023-05-10T01:53:23;140.30;;;40.50;;
18610;SDS011;9435;52.122;5.502;2023-05-10T01:55:52;148.48;;;40.83;;
18610;SDS011;9435;52.122;5.502;2023-05-10T01:58:22;140.70;;;40.50;;
18610;SDS011;9435;52.122;5.502;2023-05-10T02:00:53;134.27;;;38.20;;
18610;SDS011;9435;52.122;5.502;2023-05-10T02:03:21;146.45;;;39.85;;
18610;SDS011;9435;52.122;5.502;2023-05-10T02:05:52;154.57;;;40.25;;
18610;SDS011;9435;52.122;5.502;2023-05-10T02:08:22;138.57;;;39.28;;
18610;SDS011;9435;52.122;5.502;2023-05-10T02:10:50;145.98;;;39.63;;
18610;SDS011;9435;52.122;5.502;2023-05-10T02:13:19;144.23;;;39.45;;
18610;SDS011;9435;52.122;5.502;2023-05-10T02:15:49;150.73;;;40.25;;
18610;SDS011;9435;52.122;5.502;2023-05-10T02:18:18;141.20;;;39.05;;
18610;SDS011;9435;52.122;5.502;2023-05-10T02:20:46;138.27;;;39.05;;
18610;SDS011;9435;52.122;5.502;2023-05-10T02:23:15;142.52;;;39.85;;
18610;SDS011;9435;52.122;5.502;2023-05-10T02:25:44;134.23;;;38.25;;
18610;SDS011;9435;52.122;5.502;2023-05-10T02:28:14;140.30;;;37.63;;
18610;SDS011;9435;52.122;5.502;2023-05-10T02:30:43;147.70;;;39.53;;
18610;SDS011;9435;52.122;5.502;2023-05-10T02:33:11;148.32;;;39.35;;
18610;SDS011;9435;52.122;5.502;2023-05-10T02:35:38;132.00;;;36.47;;
18610;SDS011;9435;52.122;5.502;2023-05-10T02:38:06;147.20;;;39.30;;
18610;SDS011;9435;52.122;5.502;2023-05-10T02:40:36;154.95;;;40.80;;
18610;SDS011;9435;52.122;5.502;2023-05-10T02:43:04;142.18;;;39.25;;
18610;SDS011;9435;52.122;5.502;2023-05-10T02:45:35;162.13;;;42.03;;
18610;SDS011;9435;52.122;5.502;2023-05-10T02:48:04;156.10;;;41.45;;
18610;SDS011;9435;52.122;5.502;2023-05-10T02:50:32;150.27;;;39.60;;
18610;SDS011;9435;52.122;5.502;2023-05-10T02:53:00;161.88;;;42.20;;
18610;SDS011;9435;52.122;5.502;2023-05-10T02:55:35;162.10;;;40.35;;
18610;SDS011;9435;52.122;5.502;2023-05-10T02:58:06;150.95;;;39.20;;
18610;SDS011;9435;52.122;5.502;2023-05-10T03:00:33;151.23;;;40.72;;
18610;SDS011;9435;52.122;5.502;2023-05-10T03:03:01;168.90;;;42.03;;
18610;SDS011;9435;52.122;5.502;2023-05-10T03:05:28;160.05;;;40.90;;
18610;SDS011;9435;52.122;5.502;2023-05-10T03:07:55;168.25;;;39.80;;
18610;SDS011;9435;52.122;5.502;2023-05-10T03:10:23;175.10;;;43.38;;
18610;SDS011;9435;52.122;5.502;2023-05-10T03:13:01;165.85;;;41.13;;
18610;SDS011;9435;52.122;5.502;2023-05-10T03:15:37;162.75;;;42.03;;
18610;SDS011;9435;52.122;5.502;2023-05-10T03:18:15;177.77;;;43.60;;
18610;SDS011;9435;52.122;5.502;2023-05-10T03:20:47;187.70;;;43.83;;
18610;SDS011;9435;52.122;5.502;2023-05-10T03:23:20;201.63;;;47.17;;
18610;SDS011;9435;52.122;5.502;2023-05-10T03:25:51;195.95;;;45.85;;
18610;SDS011;9435;52.122;5.502;2023-05-10T03:28:20;209.75;;;45.15;;
18610;SDS011;9435;52.122;5.502;2023-05-10T03:30:50;200.40;;;45.08;;
18610;SDS011;9435;52.122;5.502;2023-05-10T03:33:19;192.75;;;42.78;;
18610;SDS011;9435;52.122;5.502;2023-05-10T03:35:46;205.88;;;43.88;;
18610;SDS011;9435;52.122;5.502;2023-05-10T03:38:13;204.80;;;43.03;;
18610;SDS011;9435;52.122;5.502;2023-05-10T03:40:40;202.23;;;40.97;;
18610;SDS011;9435;52.122;5.502;2023-05-10T03:43:07;194.20;;;41.15;;
18610;SDS011;9435;52.122;5.502;2023-05-10T03:45:36;208.18;;;42.88;;
18610;SDS011;9435;52.122;5.502;2023-05-10T03:48:03;206.20;;;41.63;;
18610;SDS011;9435;52.122;5.502;2023-05-10T03:50:30;211.25;;;42.50;;
18610;SDS011;9435;52.122;5.502;2023-05-10T03:52:57;200.02;;;41.15;;
18610;SDS011;9435;52.122;5.502;2023-05-10T03:55:24;206.77;;;40.47;;
18610;SDS011;9435;52.122;5.502;2023-05-10T03:57:51;211.57;;;42.47;;
18610;SDS011;9435;52.122;5.502;2023-05-10T04:00:19;221.18;;;42.70;;
18610;SDS011;9435;52.122;5.502;2023-05-10T04:02:47;227.80;;;43.25;;
18610;SDS011;9435;52.122;5.502;2023-05-10T04:05:14;222.18;;;43.15;;
18610;SDS011;9435;52.122;5.502;2023-05-10T04:07:42;222.52;;;42.28;;
18610;SDS011;9435;52.122;5.502;2023-05-10T04:10:10;220.32;;;43.40;;
18610;SDS011;9435;52.122;5.502;2023-05-10T04:12:37;228.70;;;43.38;;
18610;SDS011;9435;52.122;5.502;2023-05-10T04:15:04;203.82;;;43.13;;
18610;SDS011;9435;52.122;5.502;2023-05-10T04:17:32;204.55;;;41.88;;
18610;SDS011;9435;52.122;5.502;2023-05-10T04:20:01;202.07;;;41.83;;
18610;SDS011;9435;52.122;5.502;2023-05-10T04:22:28;207.25;;;42.97;;
18610;SDS011;9435;52.122;5.502;2023-05-10T04:24:55;195.05;;;41.20;;
18610;SDS011;9435;52.122;5.502;2023-05-10T04:27:22;187.52;;;41.85;;
18610;SDS011;9435;52.122;5.502;2023-05-10T04:29:49;191.05;;;40.47;;
18610;SDS011;9435;52.122;5.502;2023-05-10T04:32:16;183.60;;;39.42;;
18610;SDS011;9435;52.122;5.502;2023-05-10T04:34:44;195.43;;;41.25;;
18610;SDS011;9435;52.122;5.502;2023-05-10T04:37:12;200.93;;;42.13;;
18610;SDS011;9435;52.122;5.502;2023-05-10T04:39:39;183.10;;;40.75;;
18610;SDS011;9435;52.122;5.502;2023-05-10T04:42:06;196.40;;;42.03;;
18610;SDS011;9435;52.122;5.502;2023-05-10T04:44:33;199.75;;;43.60;;
18610;SDS011;9435;52.122;5.502;2023-05-10T04:47:01;198.75;;;41.88;;
18610;SDS011;9435;52.122;5.502;2023-05-10T04:49:28;197.20;;;41.42;;
18610;SDS011;9435;52.122;5.502;2023-05-10T04:51:55;207.50;;;43.97;;
18610;SDS011;9435;52.122;5.502;2023-05-10T04:54:24;201.88;;;44.42;;
18610;SDS011;9435;52.122;5.502;2023-05-10T04:56:51;211.23;;;45.38;;
18610;SDS011;9435;52.122;5.502;2023-05-10T04:59:18;211.93;;;44.97;;
18610;SDS011;9435;52.122;5.502;2023-05-10T05:01:45;211.02;;;43.63;;
18610;SDS011;9435;52.122;5.502;2023-05-10T05:04:12;207.85;;;42.40;;
18610;SDS011;9435;52.122;5.502;2023-05-10T05:06:39;203.75;;;43.45;;
18610;SDS011;9435;52.122;5.502;2023-05-10T05:09:06;176.77;;;39.47;;
18610;SDS011;9435;52.122;5.502;2023-05-10T05:11:36;190.00;;;41.25;;
18610;SDS011;9435;52.122;5.502;2023-05-10T05:14:03;192.57;;;41.30;;
18610;SDS011;9435;52.122;5.502;2023-05-10T05:16:30;191.65;;;40.50;;
18610;SDS011;9435;52.122;5.502;2023-05-10T05:18:57;204.60;;;41.95;;
18610;SDS011;9435;52.122;5.502;2023-05-10T05:21:27;197.98;;;39.83;;
18610;SDS011;9435;52.122;5.502;2023-05-10T05:23:54;197.45;;;40.65;;
18610;SDS011;9435;52.122;5.502;2023-05-10T05:26:21;205.32;;;41.08;;
18610;SDS011;9435;52.122;5.502;2023-05-10T05:28:49;215.48;;;41.67;;
18610;SDS011;9435;52.122;5.502;2023-05-10T05:31:19;197.70;;;40.85;;
18610;SDS011;9435;52.122;5.502;2023-05-10T05:33:47;204.80;;;40.28;;
18610;SDS011;9435;52.122;5.502;2023-05-10T05:36:14;203.88;;;41.55;;
18610;SDS011;9435;52.122;5.502;2023-05-10T05:38:41;209.35;;;42.45;;
18610;SDS011;9435;52.122;5.502;2023-05-10T05:41:09;212.80;;;44.80;;
18610;SDS011;9435;52.122;5.502;2023-05-10T05:43:36;210.80;;;43.83;;
18610;SDS011;9435;52.122;5.502;2023-05-10T05:46:04;205.85;;;44.22;;
18610;SDS011;9435;52.122;5.502;2023-05-10T05:48:31;209.90;;;43.80;;
18610;SDS011;9435;52.122;5.502;2023-05-10T05:50:58;210.68;;;44.45;;
18610;SDS011;9435;52.122;5.502;2023-05-10T05:53:25;221.80;;;46.10;;
18610;SDS011;9435;52.122;5.502;2023-05-10T05:55:53;230.18;;;47.92;;
18610;SDS011;9435;52.122;5.502;2023-05-10T05:58:21;227.30;;;48.10;;
18610;SDS011;9435;52.122;5.502;2023-05-10T06:00:49;221.25;;;47.90;;
18610;SDS011;9435;52.122;5.502;2023-05-10T06:03:18;233.10;;;48.78;;
18610;SDS011;9435;52.122;5.502;2023-05-10T06:05:45;225.77;;;48.45;;
18610;SDS011;9435;52.122;5.502;2023-05-10T06:08:13;217.57;;;49.38;;
18610;SDS011;9435;52.122;5.502;2023-05-10T06:10:40;198.57;;;45.92;;
18610;SDS011;9435;52.122;5.502;2023-05-10T06:13:07;215.02;;;47.30;;
18610;SDS011;9435;52.122;5.502;2023-05-10T06:15:34;188.38;;;45.88;;
18610;SDS011;9435;52.122;5.502;2023-05-10T06:18:01;184.93;;;46.50;;
18610;SDS011;9435;52.122;5.502;2023-05-10T06:20:29;185.07;;;46.35;;
18610;SDS011;9435;52.122;5.502;2023-05-10T06:22:57;163.15;;;42.45;;
18610;SDS011;9435;52.122;5.502;2023-05-10T06:25:24;162.40;;;44.22;;
18610;SDS011;9435;52.122;5.502;2023-05-10T06:27:51;154.85;;;42.90;;
18610;SDS011;9435;52.122;5.502;2023-05-10T06:30:22;146.90;;;39.88;;
18610;SDS011;9435;52.122;5.502;2023-05-10T06:32:52;133.98;;;38.65;;
18610;SDS011;9435;52.122;5.502;2023-05-10T06:35:19;138.55;;;39.10;;
18610;SDS011;9435;52.122;5.502;2023-05-10T06:37:48;152.10;;;41.08;;
18610;SDS011;9435;52.122;5.502;2023-05-10T06:40:16;145.68;;;38.45;;
18610;SDS011;9435;52.122;5.502;2023-05-10T06:42:44;139.50;;;39.58;;
18610;SDS011;9435;52.122;5.502;2023-05-10T06:45:11;146.20;;;39.60;;
18610;SDS011;9435;52.122;5.502;2023-05-10T06:47:39;132.38;;;38.63;;
18610;SDS011;9435;52.122;5.502;2023-05-10T06:50:06;142.25;;;39.08;;
18610;SDS011;9435;52.122;5.502;2023-05-10T06:52:34;133.50;;;37.45;;
18610;SDS011;9435;52.122;5.502;2023-05-10T06:55:03;127.07;;;36.13;;
18610;SDS011;9435;52.122;5.502;2023-05-10T06:57:30;101.05;;;31.98;;
18610;SDS011;9435;52.122;5.502;2023-05-10T06:59:58;104.20;;;32.30;;
18610;SDS011;9435;52.122;5.502;2023-05-10T07:02:25;95.43;;;29.77;;
18610;SDS011;9435;52.122;5.502;2023-05-10T07:04:52;86.53;;;28.40;;
18610;SDS011;9435;52.122;5.502;2023-05-10T07:07:19;88.63;;;29.08;;
18610;SDS011;9435;52.122;5.502;2023-05-10T07:09:46;93.43;;;30.05;;
18610;SDS011;9435;52.122;5.502;2023-05-10T07:12:16;84.50;;;27.40;;
18610;SDS011;9435;52.122;5.502;2023-05-10T07:14:43;76.43;;;25.02;;
18610;SDS011;9435;52.122;5.502;2023-05-10T07:17:10;72.07;;;25.08;;
18610;SDS011;9435;52.122;5.502;2023-05-10T07:19:37;70.47;;;24.10;;
18610;SDS011;9435;52.122;5.502;2023-05-10T07:22:04;62.53;;;22.38;;
18610;SDS011;9435;52.122;5.502;2023-05-10T07:24:32;59.45;;;21.50;;
18610;SDS011;9435;52.122;5.502;2023-05-10T07:27:01;48.85;;;19.10;;
18610;SDS011;9435;52.122;5.502;2023-05-10T07:29:30;48.10;;;18.65;;
18610;SDS011;9435;52.122;5.502;2023-05-10T07:31:57;45.80;;;17.67;;
18610;SDS011;9435;52.122;5.502;2023-05-10T07:34:24;39.70;;;17.23;;
18610;SDS011;9435;52.122;5.502;2023-05-10T07:36:53;39.17;;;16.35;;
18610;SDS011;9435;52.122;5.502;2023-05-10T07:39:25;38.47;;;15.55;;
18610;SDS011;9435;52.122;5.502;2023-05-10T07:41:52;35.67;;;15.85;;
18610;SDS011;9435;52.122;5.502;2023-05-10T07:44:19;35.05;;;15.00;;
18610;SDS011;9435;52.122;5.502;2023-05-10T07:46:48;34.92;;;15.27;;
18610;SDS011;9435;52.122;5.502;2023-05-10T07:49:15;34.97;;;15.52;;
18610;SDS011;9435;52.122;5.502;2023-05-10T07:51:42;40.08;;;15.43;;
18610;SDS011;9435;52.122;5.502;2023-05-10T07:54:09;40.20;;;15.02;;
18610;SDS011;9435;52.122;5.502;2023-05-10T07:56:36;34.67;;;14.82;;
18610;SDS011;9435;52.122;5.502;2023-05-10T07:59:04;34.85;;;15.35;;
18610;SDS011;9435;52.122;5.502;2023-05-10T08:01:32;36.58;;;15.90;;
18610;SDS011;9435;52.122;5.502;2023-05-10T08:04:02;39.55;;;17.45;;
18610;SDS011;9435;52.122;5.502;2023-05-10T08:06:29;36.17;;;16.25;;
18610;SDS011;9435;52.122;5.502;2023-05-10T08:08:56;37.60;;;16.85;;
18610;SDS011;9435;52.122;5.502;2023-05-10T08:11:23;35.45;;;16.88;;
18610;SDS011;9435;52.122;5.502;2023-05-10T08:13:50;35.72;;;16.02;;
18610;SDS011;9435;52.122;5.502;2023-05-10T08:16:17;36.58;;;16.70;;
18610;SDS011;9435;52.122;5.502;2023-05-10T08:18:45;35.88;;;16.20;;
18610;SDS011;9435;52.122;5.502;2023-05-10T08:21:15;33.78;;;14.93;;
18610;SDS011;9435;52.122;5.502;2023-05-10T08:23:42;33.63;;;14.77;;
18610;SDS011;9435;52.122;5.502;2023-05-10T08:26:09;29.90;;;14.38;;
18610;SDS011;9435;52.122;5.502;2023-05-10T08:28:36;25.33;;;12.23;;
18610;SDS011;9435;52.122;5.502;2023-05-10T08:31:04;32.45;;;14.02;;
18610;SDS011;9435;52.122;5.502;2023-05-10T08:33:31;29.50;;;14.05;;
18610;SDS011;9435;52.122;5.502;2023-05-10T08:35:58;27.25;;;13.35;;
18610;SDS011;9435;52.122;5.502;2023-05-10T08:38:26;28.95;;;13.00;;
18610;SDS011;9435;52.122;5.502;2023-05-10T08:40:53;27.20;;;12.73;;
18610;SDS011;9435;52.122;5.502;2023-05-10T08:43:24;29.15;;;13.40;;
18610;SDS011;9435;52.122;5.502;2023-05-10T08:45:54;30.60;;;14.52;;
18610;SDS011;9435;52.122;5.502;2023-05-10T08:48:23;30.90;;;14.98;;
18610;SDS011;9435;52.122;5.502;2023-05-10T08:50:52;31.63;;;14.35;;
18610;SDS011;9435;52.122;5.502;2023-05-10T08:53:21;34.80;;;15.90;;
18610;SDS011;9435;52.122;5.502;2023-05-10T08:55:52;31.92;;;15.93;;
18610;SDS011;9435;52.122;5.502;2023-05-10T08:58:19;32.05;;;15.43;;
18610;SDS011;9435;52.122;5.502;2023-05-10T09:00:48;33.53;;;15.57;;
18610;SDS011;9435;52.122;5.502;2023-05-10T09:03:17;34.42;;;16.55;;
18610;SDS011;9435;52.122;5.502;2023-05-10T09:05:44;36.75;;;16.88;;
18610;SDS011;9435;52.122;5.502;2023-05-10T09:08:11;33.60;;;16.58;;
18610;SDS011;9435;52.122;5.502;2023-05-10T09:10:41;30.42;;;15.50;;
18610;SDS011;9435;52.122;5.502;2023-05-10T09:13:11;31.33;;;15.73;;
18610;SDS011;9435;52.122;5.502;2023-05-10T09:15:38;37.67;;;16.90;;
18610;SDS011;9435;52.122;5.502;2023-05-10T09:18:05;34.17;;;15.98;;
18610;SDS011;9435;52.122;5.502;2023-05-10T09:20:32;32.45;;;15.85;;
18610;SDS011;9435;52.122;5.502;2023-05-10T09:22:59;33.70;;;16.05;;
18610;SDS011;9435;52.122;5.502;2023-05-10T09:25:26;28.00;;;15.25;;
18610;SDS011;9435;52.122;5.502;2023-05-10T09:27:53;28.60;;;14.38;;
18610;SDS011;9435;52.122;5.502;2023-05-10T09:30:26;23.88;;;12.57;;
18610;SDS011;9435;52.122;5.502;2023-05-10T09:32:55;22.20;;;11.80;;
18610;SDS011;9435;52.122;5.502;2023-05-10T09:35:23;22.10;;;11.60;;
18610;SDS011;9435;52.122;5.502;2023-05-10T09:37:53;22.73;;;11.25;;
18610;SDS011;9435;52.122;5.502;2023-05-10T09:40:23;19.92;;;10.52;;
18610;SDS011;9435;52.122;5.502;2023-05-10T09:42:52;23.95;;;11.40;;
18610;SDS011;9435;52.122;5.502;2023-05-10T09:45:20;21.05;;;11.40;;
18610;SDS011;9435;52.122;5.502;2023-05-10T09:47:50;18.95;;;10.80;;
18610;SDS011;9435;52.122;5.502;2023-05-10T09:50:17;18.25;;;10.30;;
18610;SDS011;9435;52.122;5.502;2023-05-10T09:52:46;19.98;;;9.88;;
18610;SDS011;9435;52.122;5.502;2023-05-10T09:55:15;20.65;;;8.93;;
18610;SDS011;9435;52.122;5.502;2023-05-10T09:57:42;10.20;;;5.88;;
18610;SDS011;9435;52.122;5.502;2023-05-10T10:00:10;11.52;;;6.88;;
18610;SDS011;9435;52.122;5.502;2023-05-10T10:02:42;12.27;;;7.20;;
18610;SDS011;9435;52.122;5.502;2023-05-10T10:05:12;13.90;;;6.38;;
18610;SDS011;9435;52.122;5.502;2023-05-10T10:07:40;13.00;;;6.68;;
18610;SDS011;9435;52.122;5.502;2023-05-10T10:10:07;12.27;;;7.18;;
18610;SDS011;9435;52.122;5.502;2023-05-10T10:12:37;13.75;;;7.10;;
18610;SDS011;9435;52.122;5.502;2023-05-10T10:15:05;12.77;;;6.97;;
18610;SDS011;9435;52.122;5.502;2023-05-10T10:17:35;10.48;;;5.60;;
18610;SDS011;9435;52.122;5.502;2023-05-10T10:20:04;12.07;;;6.22;;
18610;SDS011;9435;52.122;5.502;2023-05-10T10:22:33;10.75;;;5.57;;
18610;SDS011;9435;52.122;5.502;2023-05-10T10:25:00;12.40;;;5.78;;
18610;SDS011;9435;52.122;5.502;2023-05-10T10:30:27;11.95;;;5.78;;
18610;SDS011;9435;52.122;5.502;2023-05-10T10:33:09;11.43;;;5.90;;
18610;SDS011;9435;52.122;5.502;2023-05-10T10:35:53;11.15;;;6.30;;
18610;SDS011;9435;52.122;5.502;2023-05-10T10:38:23;11.90;;;6.85;;
18610;SDS011;9435;52.122;5.502;2023-05-10T10:40:55;14.25;;;7.47;;
18610;SDS011;9435;52.122;5.502;2023-05-10T10:43:28;13.93;;;7.78;;
18610;SDS011;9435;52.122;5.502;2023-05-10T10:46:09;15.60;;;8.00;;
18610;SDS011;9435;52.122;5.502;2023-05-10T10:48:38;15.75;;;8.27;;
18610;SDS011;9435;52.122;5.502;2023-05-10T10:51:05;16.55;;;8.93;;
18610;SDS011;9435;52.122;5.502;2023-05-10T10:53:34;15.98;;;8.38;;
18610;SDS011;9435;52.122;5.502;2023-05-10T10:56:06;18.10;;;9.23;;
18610;SDS011;9435;52.122;5.502;2023-05-10T10:58:35;17.02;;;9.00;;
18610;SDS011;9435;52.122;5.502;2023-05-10T11:01:10;17.35;;;9.05;;
18610;SDS011;9435;52.122;5.502;2023-05-10T11:03:38;19.00;;;9.45;;
18610;SDS011;9435;52.122;5.502;2023-05-10T11:06:05;17.55;;;9.48;;
18610;SDS011;9435;52.122;5.502;2023-05-10T11:08:40;18.45;;;9.80;;
18610;SDS011;9435;52.122;5.502;2023-05-10T11:11:09;16.13;;;9.77;;
18610;SDS011;9435;52.122;5.502;2023-05-10T11:13:40;17.33;;;9.10;;
18610;SDS011;9435;52.122;5.502;2023-05-10T11:16:12;16.70;;;9.32;;
18610;SDS011;9435;52.122;5.502;2023-05-10T11:21:44;14.27;;;7.63;;
18610;SDS011;9435;52.122;5.502;2023-05-10T11:24:15;13.60;;;7.85;;
18610;SDS011;9435;52.122;5.502;2023-05-10T11:26:43;16.27;;;8.38;;
18610;SDS011;9435;52.122;5.502;2023-05-10T11:29:11;16.10;;;8.20;;
18610;SDS011;9435;52.122;5.502;2023-05-10T11:31:42;14.85;;;7.63;;
18610;SDS011;9435;52.122;5.502;2023-05-10T11:34:10;14.35;;;7.82;;
18610;SDS011;9435;52.122;5.502;2023-05-10T11:36:39;14.57;;;7.90;;
18610;SDS011;9435;52.122;5.502;2023-05-10T11:39:06;14.05;;;7.55;;
18610;SDS011;9435;52.122;5.502;2023-05-10T11:41:36;15.35;;;7.75;;
18610;SDS011;9435;52.122;5.502;2023-05-10T11:44:03;13.40;;;7.53;;
18610;SDS011;9435;52.122;5.502;2023-05-10T11:46:30;13.25;;;7.55;;
18610;SDS011;9435;52.122;5.502;2023-05-10T11:48:58;15.00;;;7.53;;
18610;SDS011;9435;52.122;5.502;2023-05-10T11:51:29;12.20;;;7.22;;
18610;SDS011;9435;52.122;5.502;2023-05-10T11:53:59;13.13;;;7.18;;
18610;SDS011;9435;52.122;5.502;2023-05-10T11:56:26;12.10;;;6.45;;
18610;SDS011;9435;52.122;5.502;2023-05-10T11:58:54;12.77;;;6.63;;
18610;SDS011;9435;52.122;5.502;2023-05-10T12:01:23;13.35;;;6.88;;
18610;SDS011;9435;52.122;5.502;2023-05-10T12:03:50;14.15;;;6.10;;
18610;SDS011;9435;52.122;5.502;2023-05-10T12:06:19;10.82;;;6.28;;
18610;SDS011;9435;52.122;5.502;2023-05-10T12:08:47;10.95;;;6.38;;
18610;SDS011;9435;52.122;5.502;2023-05-10T12:11:17;9.48;;;5.78;;
18610;SDS011;9435;52.122;5.502;2023-05-10T12:13:47;11.20;;;5.88;;
18610;SDS011;9435;52.122;5.502;2023-05-10T12:16:20;11.55;;;6.20;;
18610;SDS011;9435;52.122;5.502;2023-05-10T12:18:48;11.82;;;6.32;;
18610;SDS011;9435;52.122;5.502;2023-05-10T12:21:16;11.50;;;5.43;;
18610;SDS011;9435;52.122;5.502;2023-05-10T12:23:45;11.88;;;5.68;;
18610;SDS011;9435;52.122;5.502;2023-05-10T12:26:12;10.88;;;5.70;;
18610;SDS011;9435;52.122;5.502;2023-05-10T12:28:40;10.43;;;5.53;;
18610;SDS011;9435;52.122;5.502;2023-05-10T12:31:07;10.68;;;5.78;;
18610;SDS011;9435;52.122;5.502;2023-05-10T12:33:39;10.07;;;5.50;;
18610;SDS011;9435;52.122;5.502;2023-05-10T12:36:08;10.55;;;5.32;;
18610;SDS011;9435;52.122;5.502;2023-05-10T12:38:35;9.98;;;5.32;;
18610;SDS011;9435;52.122;5.502;2023-05-10T12:41:04;11.70;;;5.60;;
18610;SDS011;9435;52.122;5.502;2023-05-10T12:43:33;8.80;;;4.88;;
18610;SDS011;9435;52.122;5.502;2023-05-10T12:46:04;7.85;;;4.40;;
18610;SDS011;9435;52.122;5.502;2023-05-10T12:48:32;6.63;;;3.88;;
18610;SDS011;9435;52.122;5.502;2023-05-10T12:51:01;6.32;;;3.78;;
18610;SDS011;9435;52.122;5.502;2023-05-10T12:53:29;5.05;;;3.00;;
18610;SDS011;9435;52.122;5.502;2023-05-10T12:55:56;7.50;;;3.33;;
18610;SDS011;9435;52.122;5.502;2023-05-10T12:58:23;5.72;;;3.35;;
18610;SDS011;9435;52.122;5.502;2023-05-10T13:00:50;8.45;;;3.50;;
18610;SDS011;9435;52.122;5.502;2023-05-10T13:03:18;8.68;;;3.40;;
18610;SDS011;9435;52.122;5.502;2023-05-10T13:05:45;7.32;;;3.13;;
18610;SDS011;9435;52.122;5.502;2023-05-10T13:08:14;4.97;;;3.00;;
18610;SDS011;9435;52.122;5.502;2023-05-10T13:10:41;7.25;;;3.70;;
18610;SDS011;9435;52.122;5.502;2023-05-10T13:13:08;6.30;;;3.10;;
18610;SDS011;9435;52.122;5.502;2023-05-10T13:15:35;6.88;;;3.30;;
18610;SDS011;9435;52.122;5.502;2023-05-10T13:18:03;8.75;;;4.22;;
18610;SDS011;9435;52.122;5.502;2023-05-10T13:20:30;7.55;;;3.70;;
18610;SDS011;9435;52.122;5.502;2023-05-10T13:22:57;7.50;;;3.75;;
18610;SDS011;9435;52.122;5.502;2023-05-10T13:25:25;7.28;;;3.03;;
18610;SDS011;9435;52.122;5.502;2023-05-10T13:27:52;6.28;;;3.30;;
18610;SDS011;9435;52.122;5.502;2023-05-10T13:30:19;7.72;;;4.75;;
18610;SDS011;9435;52.122;5.502;2023-05-10T13:32:46;10.10;;;5.97;;
18610;SDS011;9435;52.122;5.502;2023-05-10T13:35:13;10.52;;;5.63;;
18610;SDS011;9435;52.122;5.502;2023-05-10T13:37:40;10.27;;;5.95;;
18610;SDS011;9435;52.122;5.502;2023-05-10T13:40:08;13.65;;;6.00;;
18610;SDS011;9435;52.122;5.502;2023-05-10T13:42:36;9.52;;;5.85;;
18610;SDS011;9435;52.122;5.502;2023-05-10T13:45:04;11.18;;;6.13;;
18610;SDS011;9435;52.122;5.502;2023-05-10T13:47:32;13.80;;;6.00;;
18610;SDS011;9435;52.122;5.502;2023-05-10T13:49:59;9.93;;;5.43;;
18610;SDS011;9435;52.122;5.502;2023-05-10T13:52:26;11.93;;;5.90;;
18610;SDS011;9435;52.122;5.502;2023-05-10T13:54:53;9.73;;;5.38;;
18610;SDS011;9435;52.122;5.502;2023-05-10T13:57:21;12.38;;;5.80;;
18610;SDS011;9435;52.122;5.502;2023-05-10T13:59:50;17.20;;;6.68;;
18610;SDS011;9435;52.122;5.502;2023-05-10T14:02:17;11.75;;;5.82;;
18610;SDS011;9435;52.122;5.502;2023-05-10T14:04:45;12.63;;;5.50;;
18610;SDS011;9435;52.122;5.502;2023-05-10T14:07:12;14.13;;;6.22;;
18610;SDS011;9435;52.122;5.502;2023-05-10T14:09:39;12.70;;;5.80;;
18610;SDS011;9435;52.122;5.502;2023-05-10T14:12:06;11.82;;;5.60;;
18610;SDS011;9435;52.122;5.502;2023-05-10T14:14:33;11.45;;;5.70;;
18610;SDS011;9435;52.122;5.502;2023-05-10T14:17:01;12.10;;;5.80;;
18610;SDS011;9435;52.122;5.502;2023-05-10T14:19:28;11.25;;;6.20;;
18610;SDS011;9435;52.122;5.502;2023-05-10T14:21:57;11.63;;;6.00;;
18610;SDS011;9435;52.122;5.502;2023-05-10T14:24:24;10.75;;;5.55;;
18610;SDS011;9435;52.122;5.502;2023-05-10T14:26:51;10.38;;;5.57;;
18610;SDS011;9435;52.122;5.502;2023-05-10T14:29:19;9.43;;;5.18;;
18610;SDS011;9435;52.122;5.502;2023-05-10T14:31:46;11.68;;;5.57;;
18610;SDS011;9435;52.122;5.502;2023-05-10T14:34:14;9.63;;;4.95;;
18610;SDS011;9435;52.122;5.502;2023-05-10T14:36:41;10.60;;;5.40;;
18610;SDS011;9435;52.122;5.502;2023-05-10T14:39:08;11.25;;;5.60;;
18610;SDS011;9435;52.122;5.502;2023-05-10T14:41:37;9.63;;;5.60;;
18610;SDS011;9435;52.122;5.502;2023-05-10T14:44:06;13.10;;;6.60;;
18610;SDS011;9435;52.122;5.502;2023-05-10T14:46:33;11.95;;;6.00;;
18610;SDS011;9435;52.122;5.502;2023-05-10T14:49:00;12.60;;;6.45;;
18610;SDS011;9435;52.122;5.502;2023-05-10T14:51:28;14.55;;;6.80;;